Time;durP1;ratioP1;P1;durP2;ratioP2;P2;SDS_P1;SDS_P2;PMS_P1;PMS_P2;Temp;Humidity;BMP_temperature;BMP_pressure;BME280_temperature;BME280_humidity;BME280_pressure;Samples;Min_cycle;Max_cycle;Signal;HPM_P1;HPM_P2
2022/04/24 00:01:04;;;;;;;8.97;8.67;;;;;;;10.05;79.89;92366.91;5089616;28;20232;-75
2022/04/24 00:03:30;;;;;;;9.53;8.73;;;;;;;10.18;79.84;92389.69;5090051;28;20266;-75
2022/04/24 00:05:55;;;;;;;8.57;8.17;;;;;;;10.01;81.00;92388.59;5087955;28;20225;-75
2022/04/24 00:08:21;;;;;;;9.00;8.50;;;;;;;9.94;80.64;92362.88;5089466;28;20196;-75
2022/04/24 00:10:46;;;;;;;8.67;8.17;;;;;;;10.03;80.89;92384.66;5089444;28;20239;-75
2022/04/24 00:13:12;;;;;;;8.80;8.30;;;;;;;10.08;80.83;92384.63;5088802;28;20177;-75
2022/04/24 00:15:39;;;;;;;8.93;8.33;;;;;;;9.97;81.22;92383.16;5088125;28;20266;-75
2022/04/24 00:18:05;;;;;;;8.70;8.23;;;;;;;10.04;81.72;92380.97;5089589;28;20203;-75
2022/04/24 00:20:31;;;;;;;8.93;8.33;;;;;;;10.01;81.55;92386.00;5089002;28;20303;-75
2022/04/24 00:22:56;;;;;;;8.87;8.30;;;;;;;9.88;81.74;92373.63;5088750;28;20200;-74
2022/04/24 00:25:21;;;;;;;9.63;9.03;;;;;;;9.84;81.93;92396.88;5088826;28;20214;-75
2022/04/24 00:27:47;;;;;;;9.43;8.93;;;;;;;9.90;81.85;92385.31;5088929;28;20189;-75
2022/04/24 00:30:12;;;;;;;9.53;8.87;;;;;;;9.95;81.36;92387.09;5088396;28;20187;-75
2022/04/24 00:32:38;;;;;;;9.50;9.10;;;;;;;9.76;81.52;92381.84;5089581;28;20201;-75
2022/04/24 00:35:04;;;;;;;8.83;8.33;;;;;;;9.67;82.01;92386.13;5089602;28;20200;-75
2022/04/24 00:37:30;;;;;;;9.50;9.03;;;;;;;9.63;82.14;92374.69;5087944;28;20284;-75
2022/04/24 00:39:56;;;;;;;9.10;8.70;;;;;;;9.74;82.17;92391.78;5089423;28;20193;-74
2022/04/24 00:42:21;;;;;;;8.10;7.70;;;;;;;9.73;82.06;92390.22;5088951;28;20239;-74
2022/04/24 00:44:47;;;;;;;8.50;7.90;;;;;;;9.55;82.10;92385.72;5088701;28;20188;-75
2022/04/24 00:47:21;;;;;;;8.37;7.97;;;;;;;9.53;82.81;92391.22;5070482;28;20244;-75
2022/04/24 00:49:47;;;;;;;8.60;8.20;;;;;;;9.50;82.90;92380.56;5089111;28;20172;-75
2022/04/24 00:52:14;;;;;;;8.50;8.00;;;;;;;9.37;82.51;92378.66;5087997;28;20292;-75
2022/04/24 00:54:40;;;;;;;8.53;8.13;;;;;;;9.44;82.26;92389.50;5089214;28;20173;-75
2022/04/24 00:57:07;;;;;;;8.27;7.80;;;;;;;9.37;82.59;92389.06;5088974;28;20228;-75
2022/04/24 00:59:33;;;;;;;8.37;7.97;;;;;;;9.12;83.57;92374.44;5088500;28;20189;-75
2022/04/24 01:01:59;;;;;;;8.73;8.07;;;;;;;9.26;83.08;92390.97;5088778;28;20243;-75
2022/04/24 01:04:25;;;;;;;8.23;7.93;;;;;;;9.22;83.62;92397.78;5088258;28;20198;-75
2022/04/24 01:06:50;;;;;;;8.20;7.90;;;;;;;8.96;83.71;92341.00;5088410;28;20236;-75
2022/04/24 01:09:21;;;;;;;8.83;8.33;;;;;;;9.28;83.31;92388.09;5089109;28;20203;-75
2022/04/24 01:11:49;;;;;;;8.63;8.23;;;;;;;9.11;82.73;92388.50;5088981;28;20229;-75
2022/04/24 01:14:18;;;;;;;8.73;8.33;;;;;;;9.08;82.97;92396.88;5087935;28;20196;-75
2022/04/24 01:16:45;;;;;;;7.43;7.23;;;;;;;9.17;83.59;92391.84;5086776;28;20236;-75
2022/04/24 01:19:11;;;;;;;7.43;7.13;;;;;;;9.10;83.46;92396.59;5087995;28;20181;-75
2022/04/24 01:21:36;;;;;;;8.40;8.10;;;;;;;9.04;83.42;92379.47;5088367;28;20244;-75
2022/04/24 01:24:07;;;;;;;8.40;7.90;;;;;;;8.90;82.76;92374.09;5089063;28;20180;-75
2022/04/24 01:26:33;;;;;;;8.23;7.83;;;;;;;9.19;82.97;92410.56;5091346;28;20235;-75
2022/04/24 01:28:59;;;;;;;8.83;8.53;;;;;;;9.21;82.88;92408.50;5093004;28;20238;-75
2022/04/24 01:31:24;;;;;;;8.97;8.50;;;;;;;8.93;83.28;92386.59;5074815;28;20228;-75
2022/04/24 01:33:50;;;;;;;8.53;8.10;;;;;;;9.05;83.37;92399.25;5091688;28;20192;-75
2022/04/24 01:36:15;;;;;;;8.40;7.83;;;;;;;9.11;83.82;92404.13;5091622;28;20228;-75
2022/04/24 01:38:42;;;;;;;8.87;8.20;;;;;;;9.19;83.28;92405.38;5092350;28;20189;-75
2022/04/24 01:41:07;;;;;;;8.83;8.43;;;;;;;9.07;83.32;92405.75;5092241;28;20220;-75
2022/04/24 01:43:36;;;;;;;9.17;8.77;;;;;;;9.04;83.69;92402.91;5092887;28;20203;-75
2022/04/24 01:46:05;;;;;;;8.47;8.17;;;;;;;9.08;83.79;92409.91;5092045;28;20249;-75
2022/04/24 01:48:34;;;;;;;8.73;8.40;;;;;;;8.95;83.71;92402.72;5092178;28;20193;-75
2022/04/24 01:51:04;;;;;;;8.73;7.97;;;;;;;8.91;84.36;92413.94;5092010;28;20243;-76
2022/04/24 01:53:30;;;;;;;9.07;8.47;;;;;;;8.92;84.08;92405.84;5092194;28;20252;-75
2022/04/24 01:55:59;;;;;;;8.13;7.83;;;;;;;9.01;83.98;92413.88;5089049;28;20246;-75
2022/04/24 01:58:25;;;;;;;9.53;8.83;;;;;;;8.95;84.61;92431.34;5092405;28;20192;-75
2022/04/24 02:00:51;;;;;;;8.60;8.07;;;;;;;8.88;84.53;92414.50;5092162;28;20220;-75
2022/04/24 02:03:18;;;;;;;9.63;9.13;;;;;;;8.89;84.58;92419.41;5092097;28;20212;-75
2022/04/24 02:05:43;;;;;;;10.73;9.77;;;;;;;8.86;84.33;92417.38;5091452;28;20291;-75
2022/04/24 02:08:09;;;;;;;9.07;8.57;;;;;;;8.73;84.33;92393.78;5073587;28;20195;-75
2022/04/24 02:10:34;;;;;;;9.50;9.00;;;;;;;8.83;84.76;92419.72;5090796;28;20244;-75
2022/04/24 02:13:00;;;;;;;8.80;8.33;;;;;;;8.72;85.13;92418.25;5092191;28;20177;-75
2022/04/24 02:15:25;;;;;;;9.27;8.87;;;;;;;8.79;85.39;92421.34;5090846;28;20212;-75
2022/04/24 02:17:51;;;;;;;9.03;8.63;;;;;;;8.71;85.18;92424.50;5092345;28;20269;-75
2022/04/24 02:20:16;;;;;;;8.70;8.40;;;;;;;8.78;85.54;92427.59;5090579;28;20197;-75
2022/04/24 02:22:42;;;;;;;9.90;9.50;;;;;;;8.57;85.23;92413.94;5092229;28;21222;-74
2022/04/24 02:25:07;;;;;;;9.53;9.13;;;;;;;8.39;86.96;92421.59;5090824;28;20276;-75
2022/04/24 02:27:34;;;;;;;9.43;8.93;;;;;;;8.51;86.89;92435.06;5091025;28;20221;-75
2022/04/24 02:29:59;;;;;;;9.10;8.73;;;;;;;8.38;86.36;92407.03;5090881;28;20192;-76
2022/04/24 02:32:25;;;;;;;10.37;9.00;;;;;;;8.60;85.45;92423.03;5089599;28;20255;-75
2022/04/24 02:34:50;;;;;;;9.43;9.03;;;;;;;8.53;85.57;92417.34;5090451;28;20180;-75
2022/04/24 02:37:16;;;;;;;10.07;9.47;;;;;;;8.47;86.33;92418.44;5090183;28;20228;-75
2022/04/24 02:39:41;;;;;;;9.37;8.83;;;;;;;8.44;86.92;92414.53;5091173;28;20188;-75
2022/04/24 02:42:07;;;;;;;8.90;8.43;;;;;;;8.51;86.66;92411.63;5072366;28;20232;-76
2022/04/24 02:44:32;;;;;;;9.90;9.30;;;;;;;8.50;87.27;92423.09;5090310;28;20216;-75
2022/04/24 02:46:57;;;;;;;9.60;9.13;;;;;;;8.29;87.16;92400.84;5090242;28;20233;-75
2022/04/24 02:49:23;;;;;;;8.87;8.47;;;;;;;8.57;86.75;92413.16;5090956;28;20196;-75
2022/04/24 02:51:48;;;;;;;9.23;8.83;;;;;;;8.47;86.85;92419.19;5090799;28;20259;-75
2022/04/24 02:54:14;;;;;;;8.93;8.43;;;;;;;8.23;86.84;92387.09;5089792;28;20228;-76
2022/04/24 02:56:39;;;;;;;8.93;8.53;;;;;;;8.10;88.16;92395.47;5071296;28;20220;-75
2022/04/24 02:59:05;;;;;;;9.93;9.33;;;;;;;8.35;88.12;92423.97;5091169;28;20207;-74
2022/04/24 03:01:31;;;;;;;9.00;8.40;;;;;;;8.25;87.67;92412.84;5090738;28;20228;-75
2022/04/24 03:03:57;;;;;;;8.73;8.30;;;;;;;8.25;88.03;92424.00;5090740;28;20185;-75
2022/04/24 03:06:23;;;;;;;9.30;8.70;;;;;;;8.40;87.16;92421.34;5090704;28;20232;-75
2022/04/24 03:08:48;;;;;;;8.70;8.17;;;;;;;8.31;87.15;92411.75;5091394;28;20184;-75
2022/04/24 03:11:14;;;;;;;8.87;8.47;;;;;;;8.39;86.75;92435.38;5089716;28;20251;-75
2022/04/24 03:13:40;;;;;;;8.13;7.83;;;;;;;8.29;87.41;92432.06;5091038;28;20315;-75
2022/04/24 03:16:06;;;;;;;9.27;8.87;;;;;;;8.30;87.82;92444.00;5090965;28;20235;-74
2022/04/24 03:18:32;;;;;;;8.80;8.40;;;;;;;8.23;87.82;92433.91;5072556;28;20256;-75
2022/04/24 03:20:57;;;;;;;7.90;7.60;;;;;;;8.25;87.74;92441.44;5090033;28;20221;-75
2022/04/24 03:23:23;;;;;;;10.97;10.20;;;;;;;8.08;87.67;92426.94;5090437;28;20184;-76
2022/04/24 03:25:49;;;;;;;10.07;9.47;;;;;;;8.18;88.61;92454.72;5088966;28;20271;-76
2022/04/24 03:28:15;;;;;;;11.43;10.40;;;;;;;8.33;88.05;92459.09;5090794;28;20257;-75
2022/04/24 03:30:40;;;;;;;12.27;11.13;;;;;;;8.10;88.40;92444.84;5089289;28;20228;-77
2022/04/24 03:33:06;;;;;;;13.13;11.83;;;;;;;8.30;88.24;92470.00;5090321;28;20762;-76
2022/04/24 03:35:31;;;;;;;14.30;13.07;;;;;;;8.23;88.44;92459.13;5089458;28;20311;-75
2022/04/24 03:37:57;;;;;;;15.43;13.97;;;;;;;8.27;88.21;92466.13;5090119;28;20823;-75
2022/04/24 03:40:23;;;;;;;19.97;13.37;;;;;;;8.30;88.07;92457.78;5088933;28;20234;-75
2022/04/24 03:42:48;;;;;;;13.67;12.47;;;;;;;8.36;87.80;92461.16;5090393;28;20210;-75
2022/04/24 03:45:13;;;;;;;13.77;11.20;;;;;;;8.39;87.46;92461.38;5090636;28;20193;-75
2022/04/24 03:47:39;;;;;;;13.87;12.67;;;;;;;8.29;88.04;92458.06;5090193;28;20183;-75
2022/04/24 03:50:06;;;;;;;12.80;11.63;;;;;;;8.37;87.18;92455.69;5090544;28;20196;-76
2022/04/24 03:52:32;;;;;;;11.50;10.50;;;;;;;8.50;87.73;92475.13;5087592;28;20228;-75
2022/04/24 03:54:57;;;;;;;12.47;11.47;;;;;;;8.64;86.94;92470.88;5090087;28;20202;-75
2022/04/24 03:57:23;;;;;;;15.20;13.70;;;;;;;8.83;86.23;92469.19;5071505;28;20236;-75
2022/04/24 03:59:49;;;;;;;19.23;15.03;;;;;;;8.57;85.56;92413.16;5089298;28;20188;-75
2022/04/24 04:02:14;;;;;;;11.37;10.40;;;;;;;8.89;85.88;92447.28;5089940;28;20258;-74
2022/04/24 04:04:40;;;;;;;10.37;9.47;;;;;;;9.17;84.56;92465.53;5089991;28;20227;-75
2022/04/24 04:07:05;;;;;;;8.57;8.17;;;;;;;9.14;85.24;92462.69;5063566;28;20236;-75
2022/04/24 04:09:31;;;;;;;8.17;7.77;;;;;;;8.97;85.57;92441.50;5089125;28;20883;-76
2022/04/24 04:11:57;;;;;;;8.70;8.40;;;;;;;9.17;85.19;92449.13;5088702;28;20224;-75
2022/04/24 04:14:22;;;;;;;9.10;8.73;;;;;;;9.24;85.19;92463.41;5089402;28;20195;-76
2022/04/24 04:16:49;;;;;;;7.87;7.57;;;;;;;9.46;84.90;92463.72;5088249;28;20373;-76
2022/04/24 04:19:15;;;;;;;9.40;9.00;;;;;;;9.45;85.32;92450.97;5089592;28;20631;-75
2022/04/24 04:21:41;;;;;;;9.60;9.17;;;;;;;9.21;83.39;92400.66;5088854;28;20216;-76
2022/04/24 04:24:08;;;;;;;10.03;9.33;;;;;;;9.90;81.83;92473.22;5088562;28;20195;-76
2022/04/24 04:26:34;;;;;;;9.17;8.73;;;;;;;10.15;81.08;92476.31;5088758;28;20224;-76
2022/04/24 04:28:59;;;;;;;9.17;8.77;;;;;;;10.18;80.84;92465.34;5089226;28;20215;-74
2022/04/24 04:31:25;;;;;;;9.47;9.07;;;;;;;10.47;79.48;92468.66;5088830;28;20221;-75
2022/04/24 04:33:50;;;;;;;10.63;9.67;;;;;;;10.62;78.53;92480.72;5089767;28;20189;-73
2022/04/24 04:36:16;;;;;;;10.40;9.73;;;;;;;10.86;77.11;92479.56;5088900;28;20292;-75
2022/04/24 04:38:42;;;;;;;9.23;8.77;;;;;;;10.89;76.82;92470.41;5089159;28;20193;-76
2022/04/24 04:41:07;;;;;;;9.63;8.93;;;;;;;11.11;76.99;92484.44;5086781;28;20237;-74
2022/04/24 04:43:33;;;;;;;11.20;10.03;;;;;;;11.36;76.49;92465.75;5089349;28;20184;-75
2022/04/24 04:45:58;;;;;;;8.57;8.13;;;;;;;11.81;73.86;92481.78;5087129;28;20228;-76
2022/04/24 04:48:24;;;;;;;10.03;9.43;;;;;;;11.72;74.15;92476.41;5089194;28;20190;-75
2022/04/24 04:50:50;;;;;;;9.50;9.00;;;;;;;11.44;77.44;92492.31;5070727;28;20239;-76
2022/04/24 04:53:15;;;;;;;9.40;8.73;;;;;;;11.72;75.96;92496.59;5087101;28;20193;-75
2022/04/24 04:55:42;;;;;;;10.50;9.73;;;;;;;11.87;74.88;92501.53;5088909;28;20269;-75
2022/04/24 04:58:07;;;;;;;9.00;8.57;;;;;;;11.81;74.08;92497.47;5089077;28;20252;-76
2022/04/24 05:00:33;;;;;;;9.80;9.13;;;;;;;11.81;74.88;92507.94;5086863;28;20223;-76
2022/04/24 05:02:58;;;;;;;9.63;9.07;;;;;;;11.90;74.21;92506.97;5089105;28;20169;-76
2022/04/24 05:05:24;;;;;;;10.47;9.77;;;;;;;11.86;74.17;92515.69;5087955;28;20176;-76
2022/04/24 05:07:49;;;;;;;10.67;10.07;;;;;;;11.90;73.83;92512.22;5088986;28;20184;-76
2022/04/24 05:10:15;;;;;;;11.23;10.53;;;;;;;11.94;73.79;92512.44;5070947;28;20200;-75
2022/04/24 05:12:40;;;;;;;9.43;8.87;;;;;;;11.93;74.43;92521.31;5089233;28;20177;-76
2022/04/24 05:15:08;;;;;;;10.53;10.03;;;;;;;11.75;74.05;92515.06;5088649;28;20196;-76
2022/04/24 05:17:35;;;;;;;11.10;10.17;;;;;;;11.86;73.38;92515.69;5088791;28;20246;-76
2022/04/24 05:20:02;;;;;;;9.93;9.20;;;;;;;11.93;73.60;92516.88;5088284;28;20199;-76
2022/04/24 05:22:27;;;;;;;10.30;9.50;;;;;;;11.87;73.26;92496.31;5087660;28;20324;-76
2022/04/24 05:24:53;;;;;;;10.37;9.47;;;;;;;12.03;72.70;92518.53;5088653;28;21081;-76
2022/04/24 05:27:19;;;;;;;10.93;10.03;;;;;;;12.16;71.86;92528.22;5088142;28;20314;-76
2022/04/24 05:29:45;;;;;;;12.33;11.33;;;;;;;12.63;70.92;92525.22;5087038;28;20195;-76
2022/04/24 05:32:11;;;;;;;10.40;9.73;;;;;;;13.92;67.14;92520.78;5087667;28;20479;-76
2022/04/24 05:34:36;;;;;;;10.83;10.13;;;;;;;16.86;57.41;92499.97;5089240;28;20264;-76
2022/04/24 05:37:03;;;;;;;10.33;9.60;;;;;;;18.28;52.17;92529.28;5087194;28;20266;-76
2022/04/24 05:39:29;;;;;;;9.63;9.10;;;;;;;18.73;49.71;92511.53;5088676;28;20713;-76
2022/04/24 05:41:54;;;;;;;10.07;9.37;;;;;;;18.87;48.60;92524.44;5088605;28;20275;-76
2022/04/24 05:44:20;;;;;;;9.73;8.97;;;;;;;18.75;48.74;92500.63;5089124;28;20184;-76
2022/04/24 05:46:46;;;;;;;9.57;9.07;;;;;;;18.60;49.20;92512.63;5088128;28;20229;-76
2022/04/24 05:49:11;;;;;;;10.10;9.37;;;;;;;19.10;48.76;92517.59;5087989;28;20265;-75
2022/04/24 05:51:36;;;;;;;10.97;10.10;;;;;;;18.12;50.13;92509.09;5087599;28;20220;-75
2022/04/24 05:54:02;;;;;;;10.87;9.97;;;;;;;17.14;53.61;92503.69;5088520;28;20196;-75
2022/04/24 05:56:27;;;;;;;10.80;10.10;;;;;;;15.67;58.58;92522.19;5087725;28;20243;-76
2022/04/24 05:58:53;;;;;;;10.57;9.77;;;;;;;16.31;56.76;92505.31;5086222;28;20667;-76
2022/04/24 06:01:18;;;;;;;9.97;9.17;;;;;;;20.10;47.02;92533.34;5087454;28;20232;-76
2022/04/24 06:03:44;;;;;;;9.70;9.10;;;;;;;24.26;36.02;92533.19;5089022;28;20185;-76
2022/04/24 06:06:10;;;;;;;8.73;8.23;;;;;;;25.84;32.68;92535.34;5088057;28;20334;-76
2022/04/24 06:08:35;;;;;;;8.65;8.13;;;;;;;25.87;32.22;92518.53;5088569;28;20256;-75
2022/04/24 06:11:01;;;;;;;8.35;7.93;;;;;;;25.95;32.25;92525.47;5086872;28;20230;-76
2022/04/24 06:13:27;;;;;;;8.52;8.05;;;;;;;25.07;32.88;92513.41;5092219;28;20196;-74
2022/04/24 06:15:57;;;;;;;6.70;6.32;;;;;;;20.58;41.17;92501.28;5092069;28;20287;-75
2022/04/24 06:18:26;;;;;;;8.43;7.97;;;;;;;18.84;46.87;92509.22;5092431;28;20203;-75
2022/04/24 06:20:52;;;;;;;8.87;8.17;;;;;;;16.84;52.32;92492.38;5090007;28;20276;-75
2022/04/24 06:23:18;;;;;;;8.47;7.87;;;;;;;16.34;54.41;92504.69;5090952;28;20194;-75
2022/04/24 06:25:43;;;;;;;7.73;7.43;;;;;;;15.41;59.40;92500.38;5091750;28;20225;-75
2022/04/24 06:28:09;;;;;;;8.70;8.17;;;;;;;15.55;57.73;92498.34;5090760;28;20184;-75
2022/04/24 06:30:40;;;;;;;8.37;7.97;;;;;;;15.53;57.72;92500.53;5091035;28;20217;-75
2022/04/24 06:33:12;;;;;;;9.23;8.63;;;;;;;15.46;57.64;92494.94;5090454;28;20260;-75
2022/04/24 06:35:38;;;;;;;9.70;8.97;;;;;;;14.66;61.29;92492.06;5089663;28;20236;-75
2022/04/24 06:38:04;;;;;;;7.83;7.53;;;;;;;15.19;58.71;92511.03;5091772;28;20231;-74
2022/04/24 06:40:31;;;;;;;9.07;8.57;;;;;;;14.52;60.29;92494.03;5089738;28;20232;-75
2022/04/24 06:42:59;;;;;;;9.40;8.53;;;;;;;14.94;60.26;92509.13;5091902;28;20240;-75
2022/04/24 06:45:28;;;;;;;8.57;8.17;;;;;;;15.05;59.40;92505.88;5091476;28;20181;-75
2022/04/24 06:47:55;;;;;;;8.73;8.23;;;;;;;15.25;58.38;92499.25;5091125;28;20185;-75
2022/04/24 06:50:22;;;;;;;9.73;9.23;;;;;;;15.36;58.09;92506.53;5090485;28;20219;-75
2022/04/24 06:52:59;;;;;;;9.50;8.87;;;;;;;15.49;58.38;92494.31;5090061;28;20192;-75
2022/04/24 06:55:25;;;;;;;8.70;8.17;;;;;;;15.43;59.01;92495.56;5089912;28;20227;-75
2022/04/24 06:57:51;;;;;;;8.70;8.20;;;;;;;15.43;59.70;92496.34;5091407;28;20222;-75
2022/04/24 07:00:19;;;;;;;9.00;8.50;;;;;;;15.62;57.92;92478.38;5090500;28;20203;-76
2022/04/24 07:02:45;;;;;;;9.37;8.87;;;;;;;15.71;58.66;92502.03;5091162;28;20205;-75
2022/04/24 07:05:10;;;;;;;8.80;8.40;;;;;;;15.48;59.15;92487.53;5090731;28;20196;-76
2022/04/24 07:07:36;;;;;;;8.57;8.10;;;;;;;15.57;58.02;92475.13;5090590;28;20200;-74
2022/04/24 07:10:01;;;;;;;8.37;7.83;;;;;;;15.72;58.51;92493.84;5090348;28;20231;-75
2022/04/24 07:12:27;;;;;;;8.67;8.23;;;;;;;15.30;59.73;92491.97;5090513;28;20254;-75
2022/04/24 07:14:52;;;;;;;8.43;8.03;;;;;;;16.01;57.00;92498.44;5089301;28;20214;-75
2022/04/24 07:17:18;;;;;;;9.40;8.80;;;;;;;16.11;57.13;92484.91;5090589;28;20319;-75
2022/04/24 07:19:44;;;;;;;7.63;7.13;;;;;;;16.21;55.04;92489.06;5089217;28;20193;-75
2022/04/24 07:22:09;;;;;;;8.20;7.87;;;;;;;16.08;57.99;92485.53;5088620;28;20272;-75
2022/04/24 07:24:34;;;;;;;9.07;8.57;;;;;;;16.02;57.57;92484.16;5090034;28;20185;-76
2022/04/24 07:27:00;;;;;;;8.60;8.17;;;;;;;16.25;56.66;92479.47;5089738;28;20223;-76
2022/04/24 07:29:25;;;;;;;9.00;8.40;;;;;;;16.23;55.87;92484.28;5089590;28;20195;-75
2022/04/24 07:31:51;;;;;;;9.50;8.80;;;;;;;16.06;57.44;92482.47;5089580;28;20224;-76
2022/04/24 07:34:16;;;;;;;8.87;8.40;;;;;;;16.35;55.52;92463.28;5070947;28;20859;-76
2022/04/24 07:36:42;;;;;;;9.30;8.50;;;;;;;16.35;54.70;92469.34;5089838;28;20236;-74
2022/04/24 07:39:07;;;;;;;8.27;7.97;;;;;;;16.56;52.69;92483.38;5089933;28;20196;-74
2022/04/24 07:41:32;;;;;;;8.53;8.13;;;;;;;16.51;53.09;92488.84;5089211;28;20252;-73
2022/04/24 07:43:58;;;;;;;7.50;7.30;;;;;;;16.41;51.99;92483.88;5090892;28;20184;-74
2022/04/24 07:46:24;;;;;;;8.60;8.10;;;;;;;16.49;54.24;92480.47;5090002;28;20247;-74
2022/04/24 07:48:49;;;;;;;7.97;7.57;;;;;;;16.96;53.56;92486.44;5089821;28;20232;-76
2022/04/24 07:51:15;;;;;;;8.07;7.77;;;;;;;17.41;53.20;92485.50;5088499;28;20239;-75
2022/04/24 07:53:42;;;;;;;8.70;8.13;;;;;;;17.30;52.48;92486.19;5087134;28;20199;-75
2022/04/24 07:56:08;;;;;;;8.27;7.87;;;;;;;16.83;54.41;92455.78;5089665;28;20229;-76
2022/04/24 07:58:34;;;;;;;8.37;7.97;;;;;;;16.84;53.68;92468.66;5089035;28;20193;-75
2022/04/24 08:00:59;;;;;;;8.73;8.13;;;;;;;17.49;50.76;92466.19;5089623;28;20228;-76
2022/04/24 08:03:24;;;;;;;7.97;7.67;;;;;;;17.29;52.30;92461.66;5090018;28;20192;-76
2022/04/24 08:05:51;;;;;;;8.23;7.73;;;;;;;17.21;52.44;92475.69;5089682;28;20243;-76
2022/04/24 08:08:22;;;;;;;8.40;8.00;;;;;;;17.03;53.93;92463.72;5088861;28;20672;-76
2022/04/24 08:10:50;;;;;;;9.87;9.07;;;;;;;17.52;51.47;92457.63;5087253;28;20228;-75
2022/04/24 08:13:16;;;;;;;8.10;7.80;;;;;;;17.22;51.69;92460.63;5088661;28;20218;-75
2022/04/24 08:15:42;;;;;;;8.43;8.13;;;;;;;17.42;51.10;92460.63;5088422;28;20240;-76
2022/04/24 08:18:09;;;;;;;8.27;7.80;;;;;;;17.35;52.28;92449.06;5089117;28;20201;-75
2022/04/24 08:20:35;;;;;;;8.13;7.83;;;;;;;17.47;51.54;92457.84;5088155;28;20224;-76
2022/04/24 08:23:04;;;;;;;7.70;7.30;;;;;;;17.34;52.53;92439.56;5089600;28;20208;-76
2022/04/24 08:25:35;;;;;;;8.60;8.03;;;;;;;17.38;51.58;92436.00;5088706;28;20236;-76
2022/04/24 08:28:02;;;;;;;7.97;7.60;;;;;;;17.53;50.95;92426.72;5089441;28;20196;-75
2022/04/24 08:30:28;;;;;;;8.30;7.87;;;;;;;18.08;49.20;92448.22;5088572;28;20188;-76
2022/04/24 08:32:54;;;;;;;8.53;8.10;;;;;;;18.13;49.26;92444.59;5089320;28;20200;-74
2022/04/24 08:35:20;;;;;;;7.90;7.60;;;;;;;17.91;50.75;92444.97;5088537;28;20204;-75
2022/04/24 08:37:47;;;;;;;8.20;7.70;;;;;;;17.75;51.10;92446.69;5088098;28;20671;-76
2022/04/24 08:40:15;;;;;;;8.70;8.23;;;;;;;17.03;51.89;92434.72;5087999;28;20211;-76
2022/04/24 08:42:41;;;;;;;7.47;7.17;;;;;;;17.53;51.12;92427.50;5089635;28;20215;-76
2022/04/24 08:45:11;;;;;;;8.20;7.90;;;;;;;18.15;51.56;92443.16;5089079;28;20189;-76
2022/04/24 08:47:37;;;;;;;8.87;8.37;;;;;;;18.17;51.11;92430.41;5088927;28;20288;-76
2022/04/24 08:50:04;;;;;;;8.47;8.10;;;;;;;18.24;50.30;92437.78;5088540;28;20198;-75
2022/04/24 08:52:30;;;;;;;7.43;7.13;;;;;;;18.67;49.68;92438.03;5086910;28;20233;-76
2022/04/24 08:54:58;;;;;;;8.23;7.83;;;;;;;18.84;47.73;92429.88;5088600;28;20185;-76
2022/04/24 08:57:26;;;;;;;8.23;7.80;;;;;;;18.63;48.15;92442.47;5088425;28;20234;-76
2022/04/24 08:59:55;;;;;;;7.50;7.20;;;;;;;18.76;46.11;92433.41;5089376;28;20194;-76
2022/04/24 09:02:22;;;;;;;7.67;7.27;;;;;;;18.54;48.55;92424.06;5088070;28;20234;-77
2022/04/24 09:04:47;;;;;;;7.67;7.37;;;;;;;18.82;48.81;92424.13;5088862;28;20199;-76
2022/04/24 09:07:17;;;;;;;8.50;8.10;;;;;;;19.01;47.51;92434.91;5088291;28;20241;-76
2022/04/24 09:09:47;;;;;;;8.13;7.53;;;;;;;19.01;47.82;92426.97;5088255;28;20193;-76
2022/04/24 09:12:15;;;;;;;8.13;7.73;;;;;;;18.95;47.40;92423.78;5087973;28;20242;-76
2022/04/24 09:14:46;;;;;;;8.27;7.77;;;;;;;19.17;47.27;92427.81;5087595;28;20258;-76
2022/04/24 09:17:18;;;;;;;7.63;7.23;;;;;;;19.00;45.41;92428.84;5087165;28;20229;-77
2022/04/24 09:19:44;;;;;;;8.40;7.80;;;;;;;18.52;48.55;92413.03;5088408;28;20183;-76
2022/04/24 09:22:10;;;;;;;8.87;8.23;;;;;;;18.58;48.63;92418.88;5088222;28;20221;-76
2022/04/24 09:24:49;;;;;;;7.40;7.00;;;;;;;19.21;47.39;92401.47;5087811;28;20224;-76
2022/04/24 09:27:25;;;;;;;8.30;7.70;;;;;;;19.09;45.23;92412.84;5070557;28;20232;-76
2022/04/24 09:29:55;;;;;;;7.77;7.47;;;;;;;19.11;45.73;92403.44;5088444;28;20264;-76
2022/04/24 09:32:23;;;;;;;8.30;7.90;;;;;;;19.15;45.60;92399.03;5087802;28;20250;-75
2022/04/24 09:34:50;;;;;;;8.47;8.07;;;;;;;18.92;46.35;92394.59;5063083;28;20205;-74
2022/04/24 09:37:16;;;;;;;8.77;8.27;;;;;;;18.94;46.85;92382.56;5087611;28;20237;-76
2022/04/24 09:39:41;;;;;;;7.97;7.67;;;;;;;19.16;46.31;92400.56;5088380;28;20196;-76
2022/04/24 09:42:12;;;;;;;8.73;8.23;;;;;;;19.08;46.19;92392.78;5086498;28;20754;-77
2022/04/24 09:44:49;;;;;;;8.67;8.27;;;;;;;19.36;46.21;92392.81;5088432;28;20185;-74
2022/04/24 09:47:18;;;;;;;8.20;7.83;;;;;;;19.34;45.80;92390.50;5091871;28;20251;-75
2022/04/24 09:49:46;;;;;;;7.80;7.50;;;;;;;19.31;46.48;92388.53;5090997;28;20223;-75
2022/04/24 09:52:22;;;;;;;8.03;7.53;;;;;;;19.69;45.79;92388.81;5091297;28;20247;-75
2022/04/24 09:54:50;;;;;;;8.70;8.30;;;;;;;19.78;46.05;92386.75;5092345;28;20276;-75
2022/04/24 09:57:17;;;;;;;8.53;8.13;;;;;;;19.78;44.71;92378.81;5088505;28;20237;-76
2022/04/24 09:59:44;;;;;;;8.43;8.03;;;;;;;19.73;45.30;92380.94;5091871;28;20194;-75
2022/04/24 10:02:11;;;;;;;8.87;8.47;;;;;;;19.80;44.39;92381.91;5091464;28;20294;-75
2022/04/24 10:04:38;;;;;;;8.90;7.80;;;;;;;19.52;47.34;92375.88;5091886;28;20192;-75
2022/04/24 10:07:10;;;;;;;8.07;7.67;;;;;;;19.78;44.56;92365.56;5091216;28;20243;-75
2022/04/24 10:09:41;;;;;;;8.23;7.93;;;;;;;20.08;45.21;92369.34;5074026;28;20199;-75
2022/04/24 10:12:08;;;;;;;8.33;7.83;;;;;;;19.83;46.53;92354.72;5091981;28;20227;-75
2022/04/24 10:14:45;;;;;;;8.60;7.87;;;;;;;20.12;44.79;92358.84;5090511;28;20195;-75
2022/04/24 10:17:13;;;;;;;8.13;7.33;;;;;;;20.15;45.69;92358.19;5091440;28;20312;-75
2022/04/24 10:19:53;;;;;;;7.53;7.23;;;;;;;20.05;47.47;92359.44;5091603;28;20293;-75
2022/04/24 10:22:22;;;;;;;7.57;7.17;;;;;;;20.46;45.37;92348.34;5091781;28;20228;-75
2022/04/24 10:24:47;;;;;;;7.47;7.10;;;;;;;20.60;44.48;92346.00;5090720;28;20206;-75
2022/04/24 10:27:13;;;;;;;7.77;7.37;;;;;;;20.43;44.39;92345.59;5091371;28;20257;-75
2022/04/24 10:29:52;;;;;;;8.50;7.93;;;;;;;20.44;44.90;92350.56;5091190;28;20208;-75
2022/04/24 10:32:25;;;;;;;7.47;7.13;;;;;;;20.29;45.78;92340.75;5091544;28;20246;-75
2022/04/24 10:34:51;;;;;;;7.70;7.30;;;;;;;20.75;46.06;92351.59;5091718;28;20195;-75
2022/04/24 10:37:28;;;;;;;7.63;7.23;;;;;;;20.76;44.08;92343.31;5091356;28;20248;-75
2022/04/24 10:39:58;;;;;;;8.20;7.60;;;;;;;20.20;45.27;92347.34;5073843;28;20199;-75
2022/04/24 10:42:35;;;;;;;8.53;8.07;;;;;;;20.45;45.71;92324.81;5071700;28;20227;-75
2022/04/24 10:45:10;;;;;;;7.25;6.88;;;;;;;20.78;42.87;92329.69;5090848;28;20187;-75
2022/04/24 10:47:52;;;;;;;7.50;6.72;;;;;;;20.64;43.30;92333.56;5091865;28;20239;-75
2022/04/24 10:50:19;;;;;;;7.63;7.20;;;;;;;20.78;44.20;92327.03;5090230;28;20255;-75
2022/04/24 10:52:46;;;;;;;7.80;7.40;;;;;;;20.92;43.97;92329.97;5091706;28;20168;-75
2022/04/24 10:55:17;;;;;;;7.97;7.47;;;;;;;20.77;44.04;92318.28;5089026;28;20912;-75
2022/04/24 10:57:44;;;;;;;8.30;7.80;;;;;;;20.87;45.25;92322.28;5090398;28;20193;-74
2022/04/24 11:00:16;;;;;;;7.43;7.13;;;;;;;20.68;44.90;92315.81;5090743;28;20196;-75
2022/04/24 11:02:43;;;;;;;8.60;8.00;;;;;;;20.78;43.79;92324.38;5090235;28;20189;-75
2022/04/24 11:05:12;;;;;;;7.72;7.20;;;;;;;20.73;44.45;92323.53;5091496;28;20283;-75
2022/04/24 11:07:38;;;;;;;7.90;7.40;;;;;;;20.90;43.99;92303.78;5089004;28;20250;-75
2022/04/24 11:10:09;;;;;;;8.27;7.88;;;;;;;21.19;43.71;92319.19;5090620;28;20196;-75
2022/04/24 11:12:35;;;;;;;7.68;7.28;;;;;;;21.22;43.28;92304.44;5089517;28;20274;-75
2022/04/24 11:15:06;;;;;;;7.68;7.18;;;;;;;21.13;43.94;92314.50;5091133;28;20199;-75
2022/04/24 11:17:31;;;;;;;7.60;7.30;;;;;;;21.18;42.91;92316.88;5090114;28;20224;-75
2022/04/24 11:20:06;;;;;;;8.40;7.70;;;;;;;21.26;41.69;92294.66;5090742;28;20185;-75
2022/04/24 11:22:32;;;;;;;7.75;7.45;;;;;;;21.06;42.57;92303.75;5089655;28;20288;-75
2022/04/24 11:24:58;;;;;;;8.02;7.60;;;;;;;21.46;42.38;92290.84;5090814;28;20248;-75
2022/04/24 11:27:26;;;;;;;7.70;7.30;;;;;;;21.69;41.50;92297.72;5090416;28;20243;-75
2022/04/24 11:29:51;;;;;;;7.47;7.15;;;;;;;21.58;43.05;92282.72;5090038;28;20201;-75
2022/04/24 11:32:18;;;;;;;8.25;7.85;;;;;;;21.82;42.38;92288.47;5072687;28;20258;-75